KMYL

Details ICAO KMYL (MYL)
Name Mc Call Muni
Region United States
Timezone America/Boise (UTC-6.0)
Plans Departing 26
Arriving 21
Stats Elevation 5,020 ft / 1,530 m (AMSL)
Location 44.888738° -116.101747°
Runways 1
Magnetic Variation 13.530° E
Sunrise 2018-05-27 12:05:56 UTC / 2018-05-27 06:05:56 Local
Sunset 2018-05-28 03:20:09 UTC / 2018-05-27 21:20:09 Local
Advertisement - Login to hide

Runways

ID Width Length Bearing (true) Bearing (mag) Surface Threshold Offset Overrun Length
16 75 ft / 23 m 6,113 ft / 1,863 m 178.61° 165.08° Asphalt 0 ft / 0 m 56 ft / 17 m
34 75 ft / 23 m 6,113 ft / 1,863 m 358.61° 345.08° Asphalt 0 ft / 0 m 0 ft / 0 m

Map

Weather


0- 5 10 15 20 25 30 35+ Temperature / ° C

Clouds and Precipitation
Forecast for 2018-05-27 12:00 UTC. Updated 4 hours ago

Ground ~20,000 ft ~40,000 ft Winds

METAR

KMYL 271451Z AUTO 35008KT 10SM CLR 13/06 A3008 RMK AO2 SLP158 T01330056 53013

TAF

TAF KMYL 271120Z 2712/2812 33007KT P6SM SCT080 FM271800 33015G22KT P6SM SCT120 FM280300 35007KT P6SM SCT080

Frequencies

Recorded 119.92 MHz ASOS
Unicom 122.80 MHz CTAF/UNICOM
Warning: Do not use this data for real-world aviation or navigation. No guarantee of current accuracy is given.